sensor_id;sensor_type;location;lat;lon;timestamp;pressure;altitude;pressure_sealevel;temperature;humidity
3142;BME280;1581;51.568;6.998;2023-09-08T00:01:03;101060.00;;;20.11;100.00
3142;BME280;1581;51.568;6.998;2023-09-08T00:03:31;101056.72;;;20.09;100.00
3142;BME280;1581;51.568;6.998;2023-09-08T00:05:58;101056.13;;;20.07;100.00
3142;BME280;1581;51.568;6.998;2023-09-08T00:08:26;101052.28;;;20.03;100.00
3142;BME280;1581;51.568;6.998;2023-09-08T00:10:53;101050.63;;;20.02;100.00
3142;BME280;1581;51.568;6.998;2023-09-08T00:13:21;101054.66;;;20.00;100.00
3142;BME280;1581;51.568;6.998;2023-09-08T00:15:50;101056.31;;;20.01;100.00
3142;BME280;1581;51.568;6.998;2023-09-08T00:18:17;101049.72;;;19.97;100.00
3142;BME280;1581;51.568;6.998;2023-09-08T00:20:45;101050.66;;;19.91;100.00
3142;BME280;1581;51.568;6.998;2023-09-08T00:23:12;101055.25;;;19.90;100.00
3142;BME280;1581;51.568;6.998;2023-09-08T00:25:40;101052.66;;;19.84;100.00
3142;BME280;1581;51.568;6.998;2023-09-08T00:28:08;101047.25;;;19.84;100.00
3142;BME280;1581;51.568;6.998;2023-09-08T00:30:36;101050.47;;;19.81;100.00
3142;BME280;1581;51.568;6.998;2023-09-08T00:33:05;101045.75;;;19.77;100.00
3142;BME280;1581;51.568;6.998;2023-09-08T00:35:34;101046.84;;;19.76;100.00
3142;BME280;1581;51.568;6.998;2023-09-08T00:38:02;101043.06;;;19.77;100.00
3142;BME280;1581;51.568;6.998;2023-09-08T00:40:30;101042.50;;;19.75;100.00
3142;BME280;1581;51.568;6.998;2023-09-08T00:42:58;101044.88;;;19.71;100.00
3142;BME280;1581;51.568;6.998;2023-09-08T00:45:27;101037.56;;;19.72;100.00
3142;BME280;1581;51.568;6.998;2023-09-08T00:47:57;101040.16;;;19.67;100.00
3142;BME280;1581;51.568;6.998;2023-09-08T00:50:26;101033.13;;;19.66;100.00
3142;BME280;1581;51.568;6.998;2023-09-08T00:52:53;101035.00;;;19.65;100.00
3142;BME280;1581;51.568;6.998;2023-09-08T00:55:21;101040.41;;;19.65;100.00
3142;BME280;1581;51.568;6.998;2023-09-08T00:57:48;101039.94;;;19.68;100.00
3142;BME280;1581;51.568;6.998;2023-09-08T01:00:16;101046.97;;;19.69;100.00
3142;BME280;1581;51.568;6.998;2023-09-08T01:02:44;101039.34;;;19.66;100.00
3142;BME280;1581;51.568;6.998;2023-09-08T01:05:12;101040.06;;;19.62;100.00
3142;BME280;1581;51.568;6.998;2023-09-08T01:07:42;101038.41;;;19.61;100.00
3142;BME280;1581;51.568;6.998;2023-09-08T01:10:11;101043.94;;;19.54;100.00
3142;BME280;1581;51.568;6.998;2023-09-08T01:12:39;101037.63;;;19.49;100.00
3142;BME280;1581;51.568;6.998;2023-09-08T01:15:08;101036.22;;;19.46;100.00
3142;BME280;1581;51.568;6.998;2023-09-08T01:17:35;101044.00;;;19.43;100.00
3142;BME280;1581;51.568;6.998;2023-09-08T01:20:11;101035.53;;;19.39;100.00
3142;BME280;1581;51.568;6.998;2023-09-08T01:23:03;101043.78;;;19.33;100.00
3142;BME280;1581;51.568;6.998;2023-09-08T01:25:41;101047.78;;;19.30;100.00
3142;BME280;1581;51.568;6.998;2023-09-08T01:28:13;101041.53;;;19.30;100.00
3142;BME280;1581;51.568;6.998;2023-09-08T01:30:41;101046.59;;;19.26;100.00
3142;BME280;1581;51.568;6.998;2023-09-08T01:33:10;101034.16;;;19.25;100.00
3142;BME280;1581;51.568;6.998;2023-09-08T01:35:37;101041.91;;;19.22;100.00
3142;BME280;1581;51.568;6.998;2023-09-08T01:38:05;101044.72;;;19.15;100.00
3142;BME280;1581;51.568;6.998;2023-09-08T01:40:33;101036.38;;;19.17;100.00
3142;BME280;1581;51.568;6.998;2023-09-08T01:43:03;101034.78;;;19.16;100.00
3142;BME280;1581;51.568;6.998;2023-09-08T01:45:30;101043.34;;;19.13;100.00
3142;BME280;1581;51.568;6.998;2023-09-08T01:47:58;101039.91;;;19.06;100.00
3142;BME280;1581;51.568;6.998;2023-09-08T01:50:25;101035.31;;;19.06;100.00
3142;BME280;1581;51.568;6.998;2023-09-08T01:52:53;101029.78;;;19.01;100.00
3142;BME280;1581;51.568;6.998;2023-09-08T01:55:21;101029.22;;;19.00;100.00
3142;BME280;1581;51.568;6.998;2023-09-08T01:57:48;101025.22;;;19.02;100.00
3142;BME280;1581;51.568;6.998;2023-09-08T02:00:17;101025.47;;;19.01;100.00
3142;BME280;1581;51.568;6.998;2023-09-08T02:02:45;101017.59;;;18.99;100.00
3142;BME280;1581;51.568;6.998;2023-09-08T02:05:14;101026.19;;;18.96;100.00
3142;BME280;1581;51.568;6.998;2023-09-08T02:07:41;101028.03;;;18.96;100.00
3142;BME280;1581;51.568;6.998;2023-09-08T02:10:10;101021.84;;;18.95;100.00
3142;BME280;1581;51.568;6.998;2023-09-08T02:12:37;101022.28;;;18.92;100.00
3142;BME280;1581;51.568;6.998;2023-09-08T02:15:07;101029.22;;;18.88;100.00
3142;BME280;1581;51.568;6.998;2023-09-08T02:17:36;101025.72;;;18.88;100.00
3142;BME280;1581;51.568;6.998;2023-09-08T02:20:05;101027.00;;;18.85;100.00
3142;BME280;1581;51.568;6.998;2023-09-08T02:22:33;101031.56;;;18.85;100.00
3142;BME280;1581;51.568;6.998;2023-09-08T02:25:01;101030.50;;;18.86;100.00
3142;BME280;1581;51.568;6.998;2023-09-08T02:27:28;101024.31;;;18.85;100.00
3142;BME280;1581;51.568;6.998;2023-09-08T02:29:56;101029.72;;;18.85;100.00
3142;BME280;1581;51.568;6.998;2023-09-08T02:32:23;101026.63;;;18.82;100.00
3142;BME280;1581;51.568;6.998;2023-09-08T02:34:53;101026.63;;;18.82;100.00
3142;BME280;1581;51.568;6.998;2023-09-08T02:37:20;101023.38;;;18.80;100.00
3142;BME280;1581;51.568;6.998;2023-09-08T02:39:47;101025.47;;;18.78;100.00
3142;BME280;1581;51.568;6.998;2023-09-08T02:42:15;101025.72;;;18.76;100.00
3142;BME280;1581;51.568;6.998;2023-09-08T02:44:43;101024.28;;;18.74;100.00
3142;BME280;1581;51.568;6.998;2023-09-08T02:47:10;101024.78;;;18.71;100.00
3142;BME280;1581;51.568;6.998;2023-09-08T02:49:38;101018.78;;;18.69;100.00
3142;BME280;1581;51.568;6.998;2023-09-08T02:52:07;101022.53;;;18.68;100.00
3142;BME280;1581;51.568;6.998;2023-09-08T02:54:35;101028.75;;;18.68;100.00
3142;BME280;1581;51.568;6.998;2023-09-08T02:57:03;101026.88;;;18.69;100.00
3142;BME280;1581;51.568;6.998;2023-09-08T02:59:31;101026.53;;;18.65;100.00
3142;BME280;1581;51.568;6.998;2023-09-08T03:01:59;101017.25;;;18.61;100.00
3142;BME280;1581;51.568;6.998;2023-09-08T03:04:27;101018.28;;;18.60;100.00
3142;BME280;1581;51.568;6.998;2023-09-08T03:06:54;101021.59;;;18.62;100.00
3142;BME280;1581;51.568;6.998;2023-09-08T03:09:23;101014.44;;;18.56;100.00
3142;BME280;1581;51.568;6.998;2023-09-08T03:11:51;101021.09;;;18.54;100.00
3142;BME280;1581;51.568;6.998;2023-09-08T03:14:21;101017.44;;;18.48;100.00
3142;BME280;1581;51.568;6.998;2023-09-08T03:16:49;101013.72;;;18.49;100.00
3142;BME280;1581;51.568;6.998;2023-09-08T03:19:16;101015.47;;;18.44;100.00
3142;BME280;1581;51.568;6.998;2023-09-08T03:21:44;101010.66;;;18.46;100.00
3142;BME280;1581;51.568;6.998;2023-09-08T03:24:11;101002.81;;;18.44;100.00
3142;BME280;1581;51.568;6.998;2023-09-08T03:26:40;101013.25;;;18.41;100.00
3142;BME280;1581;51.568;6.998;2023-09-08T03:29:08;101007.47;;;18.37;100.00
3142;BME280;1581;51.568;6.998;2023-09-08T03:31:35;100996.09;;;18.35;100.00
3142;BME280;1581;51.568;6.998;2023-09-08T03:34:03;101003.97;;;18.37;100.00
3142;BME280;1581;51.568;6.998;2023-09-08T03:36:31;100990.13;;;18.33;100.00
3142;BME280;1581;51.568;6.998;2023-09-08T03:39:01;100995.16;;;18.30;100.00
3142;BME280;1581;51.568;6.998;2023-09-08T03:41:29;100993.50;;;18.29;100.00
3142;BME280;1581;51.568;6.998;2023-09-08T03:43:58;100992.31;;;18.25;100.00
3142;BME280;1581;51.568;6.998;2023-09-08T03:46:26;100992.31;;;18.25;100.00
3142;BME280;1581;51.568;6.998;2023-09-08T03:48:53;100991.97;;;18.21;100.00
3142;BME280;1581;51.568;6.998;2023-09-08T03:51:26;100994.66;;;18.21;100.00
3142;BME280;1581;51.568;6.998;2023-09-08T03:53:54;100988.88;;;18.18;100.00
3142;BME280;1581;51.568;6.998;2023-09-08T03:56:23;100991.34;;;18.19;100.00
3142;BME280;1581;51.568;6.998;2023-09-08T03:58:50;100996.97;;;18.18;100.00
3142;BME280;1581;51.568;6.998;2023-09-08T04:01:19;100995.31;;;18.17;100.00
3142;BME280;1581;51.568;6.998;2023-09-08T04:03:47;101002.00;;;18.14;100.00
3142;BME280;1581;51.568;6.998;2023-09-08T04:06:14;100994.38;;;18.12;100.00
3142;BME280;1581;51.568;6.998;2023-09-08T04:08:42;100997.88;;;18.12;100.00
3142;BME280;1581;51.568;6.998;2023-09-08T04:11:09;101001.66;;;18.11;100.00
3142;BME280;1581;51.568;6.998;2023-09-08T04:13:37;100997.31;;;18.10;100.00
3142;BME280;1581;51.568;6.998;2023-09-08T04:16:05;100989.22;;;18.10;100.00
3142;BME280;1581;51.568;6.998;2023-09-08T04:18:34;100991.44;;;18.13;100.00
3142;BME280;1581;51.568;6.998;2023-09-08T04:21:02;100996.72;;;18.08;100.00
3142;BME280;1581;51.568;6.998;2023-09-08T04:23:31;100993.41;;;18.06;100.00
3142;BME280;1581;51.568;6.998;2023-09-08T04:26:00;100999.66;;;18.07;100.00
3142;BME280;1581;51.568;6.998;2023-09-08T04:28:30;100994.25;;;18.07;100.00
3142;BME280;1581;51.568;6.998;2023-09-08T04:31:02;100999.75;;;18.00;100.00
3142;BME280;1581;51.568;6.998;2023-09-08T04:33:33;100997.50;;;17.97;100.00
3142;BME280;1581;51.568;6.998;2023-09-08T04:36:02;101001.25;;;17.96;100.00
3142;BME280;1581;51.568;6.998;2023-09-08T04:38:31;101001.25;;;17.96;100.00
3142;BME280;1581;51.568;6.998;2023-09-08T04:41:00;100995.03;;;17.96;100.00
3142;BME280;1581;51.568;6.998;2023-09-08T04:43:27;101003.59;;;17.93;100.00
3142;BME280;1581;51.568;6.998;2023-09-08T04:45:55;101005.59;;;17.97;100.00
3142;BME280;1581;51.568;6.998;2023-09-08T04:48:23;100996.22;;;18.00;100.00
3142;BME280;1581;51.568;6.998;2023-09-08T04:50:52;100999.59;;;17.95;100.00
3142;BME280;1581;51.568;6.998;2023-09-08T04:53:20;101000.91;;;17.93;100.00
3142;BME280;1581;51.568;6.998;2023-09-08T04:55:49;101003.81;;;17.91;100.00
3142;BME280;1581;51.568;6.998;2023-09-08T04:58:17;101006.03;;;17.94;100.00
3142;BME280;1581;51.568;6.998;2023-09-08T05:00:44;101006.53;;;17.91;100.00
3142;BME280;1581;51.568;6.998;2023-09-08T05:03:12;101009.91;;;17.87;100.00
3142;BME280;1581;51.568;6.998;2023-09-08T05:05:40;101004.72;;;17.85;100.00
3142;BME280;1581;51.568;6.998;2023-09-08T05:08:09;101009.44;;;17.90;100.00
3142;BME280;1581;51.568;6.998;2023-09-08T05:10:37;101004.03;;;17.90;100.00
3142;BME280;1581;51.568;6.998;2023-09-08T05:13:04;101006.13;;;17.88;100.00
3142;BME280;1581;51.568;6.998;2023-09-08T05:15:32;100998.88;;;17.88;100.00
3142;BME280;1581;51.568;6.998;2023-09-08T05:18:00;101007.56;;;17.90;100.00
3142;BME280;1581;51.568;6.998;2023-09-08T05:20:27;101002.38;;;17.89;100.00
3142;BME280;1581;51.568;6.998;2023-09-08T05:22:55;100995.75;;;17.91;100.00
3142;BME280;1581;51.568;6.998;2023-09-08T05:25:24;100998.56;;;17.96;100.00
3142;BME280;1581;51.568;6.998;2023-09-08T05:27:51;101000.66;;;17.94;100.00
3142;BME280;1581;51.568;6.998;2023-09-08T05:30:19;101005.59;;;17.97;100.00
3142;BME280;1581;51.568;6.998;2023-09-08T05:32:47;101006.41;;;17.98;100.00
3142;BME280;1581;51.568;6.998;2023-09-08T05:35:15;101005.34;;;17.99;100.00
3142;BME280;1581;51.568;6.998;2023-09-08T05:37:42;101008.28;;;17.97;100.00
3142;BME280;1581;51.568;6.998;2023-09-08T05:40:10;101006.78;;;18.01;100.00
3142;BME280;1581;51.568;6.998;2023-09-08T05:42:39;101004.91;;;18.02;100.00
3142;BME280;1581;51.568;6.998;2023-09-08T05:45:08;101006.31;;;18.04;100.00
3142;BME280;1581;51.568;6.998;2023-09-08T05:47:36;100994.25;;;18.07;100.00
3142;BME280;1581;51.568;6.998;2023-09-08T05:50:04;100995.66;;;18.09;100.00
3142;BME280;1581;51.568;6.998;2023-09-08T05:52:32;101000.38;;;18.13;100.00
3142;BME280;1581;51.568;6.998;2023-09-08T05:54:59;101013.16;;;18.18;100.00
3142;BME280;1581;51.568;6.998;2023-09-08T05:57:27;101008.38;;;18.20;100.00
3142;BME280;1581;51.568;6.998;2023-09-08T05:59:56;101010.41;;;18.24;100.00
3142;BME280;1581;51.568;6.998;2023-09-08T06:02:24;101009.69;;;18.29;100.00
3142;BME280;1581;51.568;6.998;2023-09-08T06:04:51;101012.88;;;18.37;100.00
3142;BME280;1581;51.568;6.998;2023-09-08T06:07:19;101013.81;;;18.43;100.00
3142;BME280;1581;51.568;6.998;2023-09-08T06:09:46;101013.50;;;18.51;100.00
3142;BME280;1581;51.568;6.998;2023-09-08T06:12:14;101019.00;;;18.56;100.00
3142;BME280;1581;51.568;6.998;2023-09-08T06:14:42;101018.66;;;18.64;100.00
3142;BME280;1581;51.568;6.998;2023-09-08T06:17:11;101026.88;;;18.69;100.00
3142;BME280;1581;51.568;6.998;2023-09-08T06:19:38;101022.19;;;18.76;100.00
3142;BME280;1581;51.568;6.998;2023-09-08T06:22:06;101020.41;;;18.81;100.00
3142;BME280;1581;51.568;6.998;2023-09-08T06:24:33;101026.50;;;18.88;100.00
3142;BME280;1581;51.568;6.998;2023-09-08T06:27:01;101024.28;;;18.97;100.00
3142;BME280;1581;51.568;6.998;2023-09-08T06:29:29;101029.09;;;19.06;100.00
3142;BME280;1581;51.568;6.998;2023-09-08T06:31:57;101031.34;;;19.20;100.00
3142;BME280;1581;51.568;6.998;2023-09-08T06:34:26;101030.50;;;19.31;100.00
3142;BME280;1581;51.568;6.998;2023-09-08T06:36:53;101029.56;;;19.37;100.00
3142;BME280;1581;51.568;6.998;2023-09-08T06:39:21;101032.66;;;19.57;100.00
3142;BME280;1581;51.568;6.998;2023-09-08T06:41:49;101030.06;;;19.62;100.00
3142;BME280;1581;51.568;6.998;2023-09-08T06:44:16;101032.75;;;19.74;100.00
3142;BME280;1581;51.568;6.998;2023-09-08T06:46:44;101035.84;;;19.82;100.00
3142;BME280;1581;51.568;6.998;2023-09-08T06:49:11;101045.69;;;19.99;100.00
3142;BME280;1581;51.568;6.998;2023-09-08T06:51:40;101035.47;;;20.01;100.00
3142;BME280;1581;51.568;6.998;2023-09-08T06:54:08;101037.44;;;20.06;100.00
3142;BME280;1581;51.568;6.998;2023-09-08T06:56:36;101038.44;;;20.16;100.00
3142;BME280;1581;51.568;6.998;2023-09-08T06:59:04;101030.84;;;20.30;100.00
3142;BME280;1581;51.568;6.998;2023-09-08T07:01:31;101041.59;;;20.41;100.00
3142;BME280;1581;51.568;6.998;2023-09-08T07:03:58;101037.16;;;20.52;100.00
3142;BME280;1581;51.568;6.998;2023-09-08T07:06:26;101046.53;;;20.61;100.00
3142;BME280;1581;51.568;6.998;2023-09-08T07:08:55;101041.19;;;20.66;100.00
3142;BME280;1581;51.568;6.998;2023-09-08T07:11:23;101034.53;;;20.73;100.00
3142;BME280;1581;51.568;6.998;2023-09-08T07:13:50;101035.22;;;20.80;100.00
3142;BME280;1581;51.568;6.998;2023-09-08T07:16:18;101036.44;;;20.89;100.00
3142;BME280;1581;51.568;6.998;2023-09-08T07:18:46;101036.09;;;21.02;100.00
3142;BME280;1581;51.568;6.998;2023-09-08T07:21:13;101041.56;;;21.07;100.00
3142;BME280;1581;51.568;6.998;2023-09-08T07:23:41;101041.97;;;21.15;100.00
3142;BME280;1581;51.568;6.998;2023-09-08T07:26:10;101043.69;;;21.21;100.00
3142;BME280;1581;51.568;6.998;2023-09-08T07:28:37;101038.06;;;21.28;100.00
3142;BME280;1581;51.568;6.998;2023-09-08T07:31:06;101054.16;;;21.34;100.00
3142;BME280;1581;51.568;6.998;2023-09-08T07:33:35;101048.06;;;21.44;100.00
3142;BME280;1581;51.568;6.998;2023-09-08T07:36:06;101053.53;;;21.49;100.00
3142;BME280;1581;51.568;6.998;2023-09-08T07:38:35;101050.91;;;21.54;100.00
3142;BME280;1581;51.568;6.998;2023-09-08T07:41:02;101048.59;;;21.62;100.00
3142;BME280;1581;51.568;6.998;2023-09-08T07:43:31;101051.13;;;21.68;100.00
3142;BME280;1581;51.568;6.998;2023-09-08T07:45:59;101050.66;;;21.76;100.00
3142;BME280;1581;51.568;6.998;2023-09-08T07:48:27;101051.03;;;21.85;100.00
3142;BME280;1581;51.568;6.998;2023-09-08T07:50:54;101053.81;;;21.90;100.00
3142;BME280;1581;51.568;6.998;2023-09-08T07:53:22;101051.72;;;21.97;100.00
3142;BME280;1581;51.568;6.998;2023-09-08T07:55:49;101045.84;;;22.05;100.00
3142;BME280;1581;51.568;6.998;2023-09-08T07:58:17;101048.66;;;22.15;100.00
3142;BME280;1581;51.568;6.998;2023-09-08T08:00:46;101046.00;;;22.20;100.00
3142;BME280;1581;51.568;6.998;2023-09-08T08:03:14;101043.03;;;22.26;100.00
3142;BME280;1581;51.568;6.998;2023-09-08T08:05:41;101046.72;;;22.37;100.00
3142;BME280;1581;51.568;6.998;2023-09-08T08:08:09;101048.66;;;22.41;100.00
3142;BME280;1581;51.568;6.998;2023-09-08T08:10:36;101047.63;;;22.47;100.00
3142;BME280;1581;51.568;6.998;2023-09-08T08:13:07;101046.03;;;22.51;100.00
3142;BME280;1581;51.568;6.998;2023-09-08T08:15:42;101048.03;;;22.60;100.00
3142;BME280;1581;51.568;6.998;2023-09-08T08:18:13;101043.75;;;22.69;100.00
3142;BME280;1581;51.568;6.998;2023-09-08T08:20:41;101047.09;;;22.81;100.00
3142;BME280;1581;51.568;6.998;2023-09-08T08:23:10;101044.41;;;22.86;100.00
3142;BME280;1581;51.568;6.998;2023-09-08T08:25:38;101049.34;;;22.89;100.00
3142;BME280;1581;51.568;6.998;2023-09-08T08:28:06;101050.50;;;22.98;100.00
3142;BME280;1581;51.568;6.998;2023-09-08T08:30:33;101049.50;;;23.09;100.00
3142;BME280;1581;51.568;6.998;2023-09-08T08:33:01;101051.16;;;23.15;100.00
3142;BME280;1581;51.568;6.998;2023-09-08T08:35:32;101048.44;;;23.15;100.00
3142;BME280;1581;51.568;6.998;2023-09-08T08:37:59;101052.81;;;23.21;100.00
3142;BME280;1581;51.568;6.998;2023-09-08T08:40:27;101046.38;;;23.37;100.00
3142;BME280;1581;51.568;6.998;2023-09-08T08:42:56;101052.69;;;23.47;100.00
3142;BME280;1581;51.568;6.998;2023-09-08T08:45:24;101042.41;;;23.54;100.00
3142;BME280;1581;51.568;6.998;2023-09-08T08:47:53;101047.59;;;23.66;100.00
3142;BME280;1581;51.568;6.998;2023-09-08T08:50:21;101045.50;;;23.78;100.00
3142;BME280;1581;51.568;6.998;2023-09-08T08:52:50;101049.63;;;23.85;100.00
3142;BME280;1581;51.568;6.998;2023-09-08T08:55:18;101051.81;;;23.93;100.00
3142;BME280;1581;51.568;6.998;2023-09-08T08:57:46;101048.31;;;24.08;100.00
3142;BME280;1581;51.568;6.998;2023-09-08T09:00:15;101047.25;;;24.24;100.00
3142;BME280;1581;51.568;6.998;2023-09-08T09:02:45;101043.44;;;24.34;100.00
3142;BME280;1581;51.568;6.998;2023-09-08T09:05:15;101044.03;;;24.46;100.00
3142;BME280;1581;51.568;6.998;2023-09-08T09:07:43;101043.75;;;24.58;100.00
3142;BME280;1581;51.568;6.998;2023-09-08T09:10:13;101043.50;;;24.69;100.00
3142;BME280;1581;51.568;6.998;2023-09-08T09:12:42;101054.66;;;24.78;99.30
3142;BME280;1581;51.568;6.998;2023-09-08T09:15:10;101055.47;;;24.88;100.00
3142;BME280;1581;51.568;6.998;2023-09-08T09:17:38;101054.09;;;24.96;100.00
3142;BME280;1581;51.568;6.998;2023-09-08T09:20:13;101046.19;;;24.99;97.54
3142;BME280;1581;51.568;6.998;2023-09-08T09:22:43;101045.91;;;25.11;98.45
3142;BME280;1581;51.568;6.998;2023-09-08T09:25:21;101048.34;;;25.22;96.61
3142;BME280;1581;51.568;6.998;2023-09-08T09:27:52;101053.78;;;25.27;98.49
3142;BME280;1581;51.568;6.998;2023-09-08T09:30:21;101045.59;;;25.32;99.99
3142;BME280;1581;51.568;6.998;2023-09-08T09:32:59;101050.47;;;25.50;96.87
3142;BME280;1581;51.568;6.998;2023-09-08T09:35:42;101047.41;;;25.56;98.08
3142;BME280;1581;51.568;6.998;2023-09-08T09:38:17;101052.28;;;25.69;99.16
3142;BME280;1581;51.568;6.998;2023-09-08T09:40:54;101044.91;;;25.80;97.98
3142;BME280;1581;51.568;6.998;2023-09-08T09:43:24;101037.94;;;25.97;97.19
3142;BME280;1581;51.568;6.998;2023-09-08T09:46:00;101041.22;;;26.04;98.73
3142;BME280;1581;51.568;6.998;2023-09-08T09:48:29;101044.59;;;26.24;96.97
3142;BME280;1581;51.568;6.998;2023-09-08T09:50:57;101036.88;;;26.36;95.71
3142;BME280;1581;51.568;6.998;2023-09-08T09:53:25;101033.81;;;26.48;93.95
3142;BME280;1581;51.568;6.998;2023-09-08T09:55:58;101036.50;;;26.53;93.34
3142;BME280;1581;51.568;6.998;2023-09-08T09:58:28;101042.66;;;26.68;91.31
3142;BME280;1581;51.568;6.998;2023-09-08T10:00:58;101038.97;;;26.83;87.76
3142;BME280;1581;51.568;6.998;2023-09-08T10:03:27;101037.28;;;26.87;89.96
3142;BME280;1581;51.568;6.998;2023-09-08T10:05:55;101046.72;;;27.04;88.67
3142;BME280;1581;51.568;6.998;2023-09-08T10:08:25;101043.88;;;27.14;86.69
3142;BME280;1581;51.568;6.998;2023-09-08T10:10:57;101038.28;;;27.24;88.92
3142;BME280;1581;51.568;6.998;2023-09-08T10:13:27;101040.88;;;27.39;86.74
3142;BME280;1581;51.568;6.998;2023-09-08T10:15:59;101041.56;;;27.49;81.64
3142;BME280;1581;51.568;6.998;2023-09-08T10:18:29;101040.31;;;27.60;78.71
3142;BME280;1581;51.568;6.998;2023-09-08T10:21:03;101036.44;;;27.66;74.44
3142;BME280;1581;51.568;6.998;2023-09-08T10:23:39;101037.94;;;27.77;72.74
3142;BME280;1581;51.568;6.998;2023-09-08T10:26:12;101035.81;;;27.92;71.04
3142;BME280;1581;51.568;6.998;2023-09-08T10:28:44;101035.88;;;28.06;70.86
3142;BME280;1581;51.568;6.998;2023-09-08T10:31:14;101041.66;;;28.04;67.24
3142;BME280;1581;51.568;6.998;2023-09-08T10:33:43;101041.41;;;28.24;69.91
3142;BME280;1581;51.568;6.998;2023-09-08T10:36:12;101037.91;;;28.37;66.84
3142;BME280;1581;51.568;6.998;2023-09-08T10:38:40;101045.97;;;28.47;68.33
3142;BME280;1581;51.568;6.998;2023-09-08T10:41:30;101040.41;;;28.52;65.73
3142;BME280;1581;51.568;6.998;2023-09-08T10:44:02;101038.00;;;28.64;63.73
3142;BME280;1581;51.568;6.998;2023-09-08T10:46:32;101035.19;;;28.69;63.66
3142;BME280;1581;51.568;6.998;2023-09-08T10:49:05;101038.88;;;28.78;63.44
3142;BME280;1581;51.568;6.998;2023-09-08T10:51:34;101033.44;;;28.91;61.67
3142;BME280;1581;51.568;6.998;2023-09-08T10:54:02;101033.16;;;29.06;64.85
3142;BME280;1581;51.568;6.998;2023-09-08T10:56:48;101031.63;;;29.14;65.26
3142;BME280;1581;51.568;6.998;2023-09-08T10:59:22;101040.41;;;29.29;61.64
3142;BME280;1581;51.568;6.998;2023-09-08T11:01:54;101044.28;;;29.42;61.33
3142;BME280;1581;51.568;6.998;2023-09-08T11:04:24;101047.34;;;29.54;59.46
3142;BME280;1581;51.568;6.998;2023-09-08T11:06:52;101046.53;;;29.67;60.80
3142;BME280;1581;51.568;6.998;2023-09-08T11:09:20;101047.53;;;29.71;59.28
3142;BME280;1581;51.568;6.998;2023-09-08T11:11:51;101038.69;;;29.73;58.73
3142;BME280;1581;51.568;6.998;2023-09-08T11:14:18;101040.00;;;29.76;59.38
3142;BME280;1581;51.568;6.998;2023-09-08T11:16:46;101040.41;;;29.83;58.48
3142;BME280;1581;51.568;6.998;2023-09-08T11:19:14;101044.78;;;29.97;59.90
3142;BME280;1581;51.568;6.998;2023-09-08T11:21:42;101041.31;;;30.05;58.58
3142;BME280;1581;51.568;6.998;2023-09-08T11:24:09;101043.81;;;30.15;57.89
3142;BME280;1581;51.568;6.998;2023-09-08T11:26:41;101037.06;;;30.21;57.51
3142;BME280;1581;51.568;6.998;2023-09-08T11:29:13;101043.59;;;30.25;56.20
3142;BME280;1581;51.568;6.998;2023-09-08T11:31:41;101046.72;;;30.32;55.45
3142;BME280;1581;51.568;6.998;2023-09-08T11:34:11;101045.53;;;30.47;57.26
3142;BME280;1581;51.568;6.998;2023-09-08T11:36:41;101041.88;;;30.51;56.03
3142;BME280;1581;51.568;6.998;2023-09-08T11:39:10;101027.13;;;30.69;57.67
3142;BME280;1581;51.568;6.998;2023-09-08T11:41:37;101032.31;;;30.70;56.16
3142;BME280;1581;51.568;6.998;2023-09-08T11:44:05;101029.72;;;30.74;53.75
3142;BME280;1581;51.568;6.998;2023-09-08T11:46:35;101037.53;;;30.80;54.13
3142;BME280;1581;51.568;6.998;2023-09-08T11:49:04;101023.53;;;30.90;53.34
3142;BME280;1581;51.568;6.998;2023-09-08T11:51:32;101028.88;;;30.95;53.21
3142;BME280;1581;51.568;6.998;2023-09-08T11:54:00;101024.38;;;30.99;51.79
3142;BME280;1581;51.568;6.998;2023-09-08T11:56:28;101025.94;;;31.14;51.33
3142;BME280;1581;51.568;6.998;2023-09-08T11:58:56;101025.97;;;31.22;50.14
3142;BME280;1581;51.568;6.998;2023-09-08T12:01:25;101016.38;;;31.20;52.44
3142;BME280;1581;51.568;6.998;2023-09-08T12:03:55;101013.84;;;31.32;52.85
3142;BME280;1581;51.568;6.998;2023-09-08T12:06:26;101029.69;;;31.26;50.30
3142;BME280;1581;51.568;6.998;2023-09-08T12:08:53;101023.72;;;31.24;51.10
3142;BME280;1581;51.568;6.998;2023-09-08T12:11:21;101019.34;;;31.32;51.79
3142;BME280;1581;51.568;6.998;2023-09-08T12:13:49;101020.47;;;31.31;49.29
3142;BME280;1581;51.568;6.998;2023-09-08T12:16:20;101023.75;;;31.33;50.73
3142;BME280;1581;51.568;6.998;2023-09-08T12:18:49;101022.31;;;31.44;51.00
3142;BME280;1581;51.568;6.998;2023-09-08T12:21:18;101021.44;;;31.57;51.50
3142;BME280;1581;51.568;6.998;2023-09-08T12:23:50;101022.75;;;31.67;51.88
3142;BME280;1581;51.568;6.998;2023-09-08T12:26:18;101024.91;;;31.87;54.68
3142;BME280;1581;51.568;6.998;2023-09-08T12:28:46;101019.06;;;31.89;50.32
3142;BME280;1581;51.568;6.998;2023-09-08T12:31:14;101017.44;;;31.88;48.92
3142;BME280;1581;51.568;6.998;2023-09-08T12:33:43;101015.66;;;32.00;49.42
3142;BME280;1581;51.568;6.998;2023-09-08T12:36:12;101015.97;;;31.99;48.24
3142;BME280;1581;51.568;6.998;2023-09-08T12:38:46;101020.69;;;32.07;51.62
3142;BME280;1581;51.568;6.998;2023-09-08T12:41:14;101008.88;;;32.15;53.13
3142;BME280;1581;51.568;6.998;2023-09-08T12:43:42;101014.25;;;32.20;51.91
3142;BME280;1581;51.568;6.998;2023-09-08T12:46:10;101014.06;;;32.33;50.55
3142;BME280;1581;51.568;6.998;2023-09-08T12:48:39;101007.91;;;32.36;49.99
3142;BME280;1581;51.568;6.998;2023-09-08T12:51:08;101006.25;;;32.52;49.53
3142;BME280;1581;51.568;6.998;2023-09-08T12:53:37;101001.53;;;32.69;48.54
3142;BME280;1581;51.568;6.998;2023-09-08T12:56:07;101004.28;;;32.78;48.75
3142;BME280;1581;51.568;6.998;2023-09-08T12:58:36;101002.66;;;32.77;44.93
3142;BME280;1581;51.568;6.998;2023-09-08T13:01:04;101003.25;;;32.91;46.88
3142;BME280;1581;51.568;6.998;2023-09-08T13:03:33;100996.25;;;33.10;48.81
3142;BME280;1581;51.568;6.998;2023-09-08T13:06:01;100997.31;;;33.26;47.59
3142;BME280;1581;51.568;6.998;2023-09-08T13:08:31;100996.31;;;33.31;47.33
3142;BME280;1581;51.568;6.998;2023-09-08T13:10:59;100997.66;;;33.25;45.12